sensor_id;sensor_type;location;lat;lon;timestamp;P1;durP1;ratioP1;P2;durP2;ratioP2
77736;SDS011;66903;59.926;30.404;2024-03-02T00:01:34;2.50;;;1.13;;
77736;SDS011;66903;59.926;30.404;2024-03-02T00:06:45;3.60;;;1.48;;
77736;SDS011;66903;59.926;30.404;2024-03-02T00:11:56;3.90;;;1.30;;
77736;SDS011;66903;59.926;30.404;2024-03-02T00:17:11;3.45;;;1.33;;
77736;SDS011;66903;59.926;30.404;2024-03-02T00:22:31;3.92;;;1.55;;
77736;SDS011;66903;59.926;30.404;2024-03-02T00:27:47;3.20;;;1.50;;
77736;SDS011;66903;59.926;30.404;2024-03-02T00:32:59;4.45;;;2.03;;
77736;SDS011;66903;59.926;30.404;2024-03-02T00:38:10;4.25;;;2.00;;
77736;SDS011;66903;59.926;30.404;2024-03-02T00:48:55;3.95;;;1.60;;
77736;SDS011;66903;59.926;30.404;2024-03-02T00:54:08;4.13;;;1.58;;
77736;SDS011;66903;59.926;30.404;2024-03-02T00:59:22;4.65;;;1.65;;
77736;SDS011;66903;59.926;30.404;2024-03-02T01:04:34;4.68;;;1.60;;
77736;SDS011;66903;59.926;30.404;2024-03-02T01:09:45;3.60;;;1.50;;
77736;SDS011;66903;59.926;30.404;2024-03-02T01:14:56;4.57;;;1.80;;
77736;SDS011;66903;59.926;30.404;2024-03-02T01:20:10;4.88;;;1.95;;
77736;SDS011;66903;59.926;30.404;2024-03-02T01:25:21;3.97;;;1.50;;
77736;SDS011;66903;59.926;30.404;2024-03-02T01:30:32;4.65;;;1.75;;
77736;SDS011;66903;59.926;30.404;2024-03-02T01:35:43;5.00;;;2.17;;
77736;SDS011;66903;59.926;30.404;2024-03-02T01:40:54;4.65;;;1.70;;
77736;SDS011;66903;59.926;30.404;2024-03-02T01:46:07;4.40;;;1.90;;
77736;SDS011;66903;59.926;30.404;2024-03-02T01:51:18;4.50;;;1.80;;
77736;SDS011;66903;59.926;30.404;2024-03-02T01:56:29;5.30;;;1.95;;
77736;SDS011;66903;59.926;30.404;2024-03-02T02:01:40;4.60;;;1.50;;
77736;SDS011;66903;59.926;30.404;2024-03-02T02:06:51;3.17;;;1.33;;
77736;SDS011;66903;59.926;30.404;2024-03-02T02:12:02;4.00;;;1.50;;
77736;SDS011;66903;59.926;30.404;2024-03-02T02:17:15;4.10;;;1.63;;
77736;SDS011;66903;59.926;30.404;2024-03-02T02:22:27;4.38;;;1.75;;
77736;SDS011;66903;59.926;30.404;2024-03-02T02:27:37;4.50;;;1.52;;
77736;SDS011;66903;59.926;30.404;2024-03-02T02:32:49;4.70;;;1.95;;
77736;SDS011;66903;59.926;30.404;2024-03-02T02:38:01;5.75;;;1.95;;
77736;SDS011;66903;59.926;30.404;2024-03-02T02:43:13;5.47;;;1.63;;
77736;SDS011;66903;59.926;30.404;2024-03-02T02:48:24;6.00;;;1.95;;
77736;SDS011;66903;59.926;30.404;2024-03-02T02:53:35;3.90;;;1.35;;
77736;SDS011;66903;59.926;30.404;2024-03-02T02:58:50;5.45;;;1.58;;
77736;SDS011;66903;59.926;30.404;2024-03-02T03:04:01;3.47;;;1.30;;
77736;SDS011;66903;59.926;30.404;2024-03-02T03:09:12;3.45;;;1.20;;
77736;SDS011;66903;59.926;30.404;2024-03-02T03:14:23;2.45;;;1.08;;
77736;SDS011;66903;59.926;30.404;2024-03-02T03:19:34;3.35;;;1.30;;
77736;SDS011;66903;59.926;30.404;2024-03-02T03:24:46;3.30;;;1.27;;
77736;SDS011;66903;59.926;30.404;2024-03-02T03:29:57;3.70;;;1.40;;
77736;SDS011;66903;59.926;30.404;2024-03-02T03:35:08;3.17;;;1.20;;
77736;SDS011;66903;59.926;30.404;2024-03-02T03:40:19;3.95;;;1.42;;
77736;SDS011;66903;59.926;30.404;2024-03-02T03:45:30;3.50;;;1.00;;
77736;SDS011;66903;59.926;30.404;2024-03-02T03:50:41;3.25;;;1.30;;
77736;SDS011;66903;59.926;30.404;2024-03-02T03:55:52;4.05;;;1.35;;
77736;SDS011;66903;59.926;30.404;2024-03-02T04:01:03;2.95;;;1.20;;
77736;SDS011;66903;59.926;30.404;2024-03-02T04:06:14;3.67;;;1.27;;
77736;SDS011;66903;59.926;30.404;2024-03-02T04:11:27;3.13;;;1.10;;
77736;SDS011;66903;59.926;30.404;2024-03-02T04:16:38;3.30;;;1.58;;
77736;SDS011;66903;59.926;30.404;2024-03-02T04:21:49;3.83;;;1.63;;
77736;SDS011;66903;59.926;30.404;2024-03-02T04:27:00;3.33;;;1.25;;
77736;SDS011;66903;59.926;30.404;2024-03-02T04:32:11;3.33;;;1.40;;
77736;SDS011;66903;59.926;30.404;2024-03-02T04:37:22;3.50;;;1.40;;
77736;SDS011;66903;59.926;30.404;2024-03-02T04:42:33;4.68;;;1.45;;
77736;SDS011;66903;59.926;30.404;2024-03-02T04:47:44;3.05;;;1.25;;
77736;SDS011;66903;59.926;30.404;2024-03-02T04:52:55;3.50;;;1.33;;
77736;SDS011;66903;59.926;30.404;2024-03-02T04:58:06;4.00;;;1.55;;
77736;SDS011;66903;59.926;30.404;2024-03-02T05:03:17;5.20;;;1.33;;
77736;SDS011;66903;59.926;30.404;2024-03-02T05:08:28;3.20;;;1.30;;
77736;SDS011;66903;59.926;30.404;2024-03-02T05:13:39;3.03;;;1.15;;
77736;SDS011;66903;59.926;30.404;2024-03-02T05:18:50;4.68;;;1.70;;
77736;SDS011;66903;59.926;30.404;2024-03-02T05:24:01;3.67;;;1.38;;
77736;SDS011;66903;59.926;30.404;2024-03-02T05:29:12;3.63;;;1.60;;
77736;SDS011;66903;59.926;30.404;2024-03-02T05:34:23;3.28;;;1.17;;
77736;SDS011;66903;59.926;30.404;2024-03-02T05:39:34;2.85;;;1.17;;
77736;SDS011;66903;59.926;30.404;2024-03-02T05:44:45;3.70;;;1.40;;
77736;SDS011;66903;59.926;30.404;2024-03-02T05:49:56;3.33;;;1.40;;
77736;SDS011;66903;59.926;30.404;2024-03-02T05:55:07;3.50;;;1.25;;
77736;SDS011;66903;59.926;30.404;2024-03-02T06:00:18;5.35;;;1.40;;
77736;SDS011;66903;59.926;30.404;2024-03-02T06:05:29;3.58;;;1.67;;
77736;SDS011;66903;59.926;30.404;2024-03-02T06:10:40;3.47;;;1.50;;
77736;SDS011;66903;59.926;30.404;2024-03-02T06:15:52;2.80;;;1.20;;
77736;SDS011;66903;59.926;30.404;2024-03-02T06:21:03;3.25;;;1.48;;
77736;SDS011;66903;59.926;30.404;2024-03-02T06:26:14;3.65;;;1.45;;
77736;SDS011;66903;59.926;30.404;2024-03-02T06:31:25;3.70;;;1.30;;
77736;SDS011;66903;59.926;30.404;2024-03-02T06:36:36;4.22;;;1.52;;
77736;SDS011;66903;59.926;30.404;2024-03-02T06:41:50;4.50;;;1.40;;
77736;SDS011;66903;59.926;30.404;2024-03-02T06:47:01;2.97;;;1.40;;
77736;SDS011;66903;59.926;30.404;2024-03-02T06:52:12;3.60;;;1.45;;
77736;SDS011;66903;59.926;30.404;2024-03-02T06:57:23;3.70;;;1.40;;
77736;SDS011;66903;59.926;30.404;2024-03-02T07:02:35;5.18;;;1.48;;
77736;SDS011;66903;59.926;30.404;2024-03-02T07:07:46;4.07;;;1.60;;
77736;SDS011;66903;59.926;30.404;2024-03-02T07:12:57;5.13;;;2.10;;
77736;SDS011;66903;59.926;30.404;2024-03-02T07:18:08;3.38;;;1.38;;
77736;SDS011;66903;59.926;30.404;2024-03-02T07:23:19;4.03;;;1.73;;
77736;SDS011;66903;59.926;30.404;2024-03-02T07:28:33;3.60;;;1.58;;
77736;SDS011;66903;59.926;30.404;2024-03-02T07:33:44;3.42;;;1.52;;
77736;SDS011;66903;59.926;30.404;2024-03-02T07:38:56;3.38;;;1.38;;
77736;SDS011;66903;59.926;30.404;2024-03-02T07:44:07;4.32;;;1.70;;
77736;SDS011;66903;59.926;30.404;2024-03-02T07:49:19;4.38;;;2.17;;
77736;SDS011;66903;59.926;30.404;2024-03-02T07:54:30;5.45;;;2.50;;
77736;SDS011;66903;59.926;30.404;2024-03-02T07:59:44;4.45;;;1.90;;
77736;SDS011;66903;59.926;30.404;2024-03-02T08:04:55;5.88;;;2.20;;
77736;SDS011;66903;59.926;30.404;2024-03-02T08:10:06;5.00;;;2.08;;
77736;SDS011;66903;59.926;30.404;2024-03-02T08:15:17;5.13;;;1.80;;
77736;SDS011;66903;59.926;30.404;2024-03-02T08:20:28;5.53;;;2.25;;
77736;SDS011;66903;59.926;30.404;2024-03-02T08:25:39;5.82;;;2.15;;
77736;SDS011;66903;59.926;30.404;2024-03-02T08:30:50;5.53;;;2.28;;
77736;SDS011;66903;59.926;30.404;2024-03-02T08:36:01;4.38;;;1.92;;
77736;SDS011;66903;59.926;30.404;2024-03-02T08:41:13;4.88;;;2.17;;
77736;SDS011;66903;59.926;30.404;2024-03-02T08:46:24;4.82;;;2.10;;
77736;SDS011;66903;59.926;30.404;2024-03-02T08:51:35;5.78;;;2.08;;
77736;SDS011;66903;59.926;30.404;2024-03-02T08:56:46;5.47;;;2.20;;
77736;SDS011;66903;59.926;30.404;2024-03-02T09:01:57;6.53;;;2.22;;
77736;SDS011;66903;59.926;30.404;2024-03-02T09:07:08;5.28;;;2.35;;
77736;SDS011;66903;59.926;30.404;2024-03-02T09:12:19;5.25;;;2.30;;
77736;SDS011;66903;59.926;30.404;2024-03-02T09:17:30;5.65;;;2.10;;
77736;SDS011;66903;59.926;30.404;2024-03-02T09:22:41;6.72;;;2.72;;
77736;SDS011;66903;59.926;30.404;2024-03-02T09:27:52;6.55;;;2.83;;
77736;SDS011;66903;59.926;30.404;2024-03-02T09:33:03;5.35;;;2.30;;
77736;SDS011;66903;59.926;30.404;2024-03-02T09:38:15;5.55;;;2.08;;
77736;SDS011;66903;59.926;30.404;2024-03-02T09:43:26;5.38;;;2.40;;
77736;SDS011;66903;59.926;30.404;2024-03-02T09:48:37;5.63;;;2.35;;
77736;SDS011;66903;59.926;30.404;2024-03-02T09:53:48;5.40;;;2.45;;
77736;SDS011;66903;59.926;30.404;2024-03-02T09:59:00;6.28;;;3.10;;
77736;SDS011;66903;59.926;30.404;2024-03-02T10:04:11;6.53;;;3.10;;
77736;SDS011;66903;59.926;30.404;2024-03-02T10:09:29;5.30;;;2.13;;
77736;SDS011;66903;59.926;30.404;2024-03-02T10:14:40;6.10;;;3.10;;
77736;SDS011;66903;59.926;30.404;2024-03-02T10:19:51;7.00;;;3.00;;
77736;SDS011;66903;59.926;30.404;2024-03-02T10:25:02;6.57;;;3.22;;
77736;SDS011;66903;59.926;30.404;2024-03-02T10:30:15;5.88;;;2.97;;
77736;SDS011;66903;59.926;30.404;2024-03-02T10:35:26;6.75;;;3.42;;
77736;SDS011;66903;59.926;30.404;2024-03-02T10:40:37;6.78;;;2.70;;
77736;SDS011;66903;59.926;30.404;2024-03-02T10:45:49;7.03;;;3.28;;
77736;SDS011;66903;59.926;30.404;2024-03-02T10:51:01;5.18;;;2.45;;
77736;SDS011;66903;59.926;30.404;2024-03-02T10:56:14;6.63;;;3.15;;
77736;SDS011;66903;59.926;30.404;2024-03-02T11:01:33;6.13;;;3.30;;
77736;SDS011;66903;59.926;30.404;2024-03-02T11:06:48;6.07;;;2.85;;
77736;SDS011;66903;59.926;30.404;2024-03-02T11:12:05;4.90;;;2.30;;
77736;SDS011;66903;59.926;30.404;2024-03-02T11:17:23;6.18;;;2.58;;
77736;SDS011;66903;59.926;30.404;2024-03-02T11:22:36;6.13;;;2.65;;
77736;SDS011;66903;59.926;30.404;2024-03-02T11:33:02;5.50;;;2.72;;
77736;SDS011;66903;59.926;30.404;2024-03-02T11:38:20;6.20;;;2.83;;
77736;SDS011;66903;59.926;30.404;2024-03-02T11:43:31;5.72;;;2.85;;
77736;SDS011;66903;59.926;30.404;2024-03-02T11:48:43;5.75;;;2.60;;
77736;SDS011;66903;59.926;30.404;2024-03-02T11:53:56;5.63;;;2.83;;
77736;SDS011;66903;59.926;30.404;2024-03-02T11:59:09;6.93;;;2.97;;
77736;SDS011;66903;59.926;30.404;2024-03-02T12:04:21;6.60;;;3.00;;
77736;SDS011;66903;59.926;30.404;2024-03-02T12:09:33;8.45;;;3.58;;
77736;SDS011;66903;59.926;30.404;2024-03-02T12:14:49;6.97;;;3.10;;
77736;SDS011;66903;59.926;30.404;2024-03-02T12:20:11;8.27;;;3.63;;
77736;SDS011;66903;59.926;30.404;2024-03-02T12:25:23;7.50;;;3.90;;
77736;SDS011;66903;59.926;30.404;2024-03-02T12:30:35;8.63;;;3.80;;
77736;SDS011;66903;59.926;30.404;2024-03-02T12:35:46;7.43;;;3.80;;
77736;SDS011;66903;59.926;30.404;2024-03-02T12:40:59;9.20;;;3.45;;
77736;SDS011;66903;59.926;30.404;2024-03-02T12:46:10;12.15;;;4.63;;
77736;SDS011;66903;59.926;30.404;2024-03-02T12:51:21;8.85;;;3.90;;
77736;SDS011;66903;59.926;30.404;2024-03-02T12:56:32;6.55;;;3.10;;
77736;SDS011;66903;59.926;30.404;2024-03-02T13:01:53;7.82;;;3.20;;
77736;SDS011;66903;59.926;30.404;2024-03-02T13:07:07;7.57;;;3.78;;
77736;SDS011;66903;59.926;30.404;2024-03-02T13:12:19;8.48;;;3.60;;
77736;SDS011;66903;59.926;30.404;2024-03-02T13:17:30;9.93;;;4.10;;
77736;SDS011;66903;59.926;30.404;2024-03-02T13:22:43;8.20;;;3.78;;
77736;SDS011;66903;59.926;30.404;2024-03-02T13:27:54;9.15;;;4.25;;
77736;SDS011;66903;59.926;30.404;2024-03-02T13:33:05;6.95;;;3.30;;
77736;SDS011;66903;59.926;30.404;2024-03-02T13:38:17;7.80;;;4.00;;
77736;SDS011;66903;59.926;30.404;2024-03-02T13:43:29;7.75;;;3.92;;
77736;SDS011;66903;59.926;30.404;2024-03-02T13:48:45;9.35;;;4.28;;
77736;SDS011;66903;59.926;30.404;2024-03-02T13:53:56;7.07;;;3.60;;
77736;SDS011;66903;59.926;30.404;2024-03-02T13:59:07;12.65;;;6.50;;
77736;SDS011;66903;59.926;30.404;2024-03-02T14:04:19;10.63;;;5.45;;
77736;SDS011;66903;59.926;30.404;2024-03-02T14:09:30;11.35;;;6.50;;
77736;SDS011;66903;59.926;30.404;2024-03-02T14:14:41;9.85;;;6.90;;
77736;SDS011;66903;59.926;30.404;2024-03-02T14:19:52;11.65;;;7.18;;
77736;SDS011;66903;59.926;30.404;2024-03-02T14:25:04;6.70;;;3.97;;
77736;SDS011;66903;59.926;30.404;2024-03-02T14:30:15;10.65;;;7.47;;
77736;SDS011;66903;59.926;30.404;2024-03-02T14:35:26;10.75;;;5.35;;
77736;SDS011;66903;59.926;30.404;2024-03-02T14:40:39;7.55;;;3.85;;
77736;SDS011;66903;59.926;30.404;2024-03-02T14:45:50;8.80;;;4.10;;
77736;SDS011;66903;59.926;30.404;2024-03-02T14:51:01;8.98;;;4.72;;
77736;SDS011;66903;59.926;30.404;2024-03-02T14:56:12;7.80;;;4.22;;
77736;SDS011;66903;59.926;30.404;2024-03-02T15:01:24;12.05;;;5.90;;
77736;SDS011;66903;59.926;30.404;2024-03-02T15:06:35;12.27;;;6.10;;
77736;SDS011;66903;59.926;30.404;2024-03-02T15:11:46;8.00;;;4.25;;
77736;SDS011;66903;59.926;30.404;2024-03-02T15:16:57;9.52;;;4.53;;
77736;SDS011;66903;59.926;30.404;2024-03-02T15:22:09;8.38;;;3.92;;
77736;SDS011;66903;59.926;30.404;2024-03-02T15:27:20;9.57;;;4.35;;
77736;SDS011;66903;59.926;30.404;2024-03-02T15:32:31;6.63;;;3.55;;
77736;SDS011;66903;59.926;30.404;2024-03-02T15:37:42;8.27;;;3.80;;
77736;SDS011;66903;59.926;30.404;2024-03-02T15:42:53;7.72;;;4.00;;
77736;SDS011;66903;59.926;30.404;2024-03-02T15:48:04;9.18;;;3.13;;
77736;SDS011;66903;59.926;30.404;2024-03-02T15:53:15;7.40;;;3.90;;
77736;SDS011;66903;59.926;30.404;2024-03-02T15:58:26;7.10;;;3.25;;
77736;SDS011;66903;59.926;30.404;2024-03-02T16:03:37;7.40;;;3.20;;
77736;SDS011;66903;59.926;30.404;2024-03-02T16:08:48;9.77;;;3.50;;
77736;SDS011;66903;59.926;30.404;2024-03-02T16:14:00;6.25;;;3.17;;
77736;SDS011;66903;59.926;30.404;2024-03-02T16:19:11;6.88;;;3.35;;
77736;SDS011;66903;59.926;30.404;2024-03-02T16:24:22;6.55;;;3.03;;
77736;SDS011;66903;59.926;30.404;2024-03-02T16:29:33;5.28;;;2.67;;
77736;SDS011;66903;59.926;30.404;2024-03-02T16:34:44;6.07;;;3.20;;
77736;SDS011;66903;59.926;30.404;2024-03-02T16:39:56;7.72;;;2.97;;
77736;SDS011;66903;59.926;30.404;2024-03-02T16:45:07;7.65;;;3.40;;
77736;SDS011;66903;59.926;30.404;2024-03-02T16:50:19;7.40;;;3.08;;
77736;SDS011;66903;59.926;30.404;2024-03-02T16:55:30;6.57;;;2.95;;
77736;SDS011;66903;59.926;30.404;2024-03-02T17:00:41;6.05;;;3.05;;
77736;SDS011;66903;59.926;30.404;2024-03-02T17:05:52;6.35;;;2.92;;
77736;SDS011;66903;59.926;30.404;2024-03-02T17:11:03;5.10;;;2.28;;
77736;SDS011;66903;59.926;30.404;2024-03-02T17:16:14;7.25;;;2.88;;
77736;SDS011;66903;59.926;30.404;2024-03-02T17:21:26;6.70;;;2.10;;
77736;SDS011;66903;59.926;30.404;2024-03-02T17:26:37;6.93;;;3.03;;
77736;SDS011;66903;59.926;30.404;2024-03-02T17:31:51;8.23;;;2.35;;
77736;SDS011;66903;59.926;30.404;2024-03-02T17:37:02;6.72;;;2.97;;
77736;SDS011;66903;59.926;30.404;2024-03-02T17:42:13;5.80;;;2.65;;
77736;SDS011;66903;59.926;30.404;2024-03-02T17:47:24;6.00;;;2.08;;
77736;SDS011;66903;59.926;30.404;2024-03-02T17:52:36;5.55;;;2.30;;
77736;SDS011;66903;59.926;30.404;2024-03-02T17:57:47;5.22;;;1.90;;
77736;SDS011;66903;59.926;30.404;2024-03-02T18:02:59;4.60;;;2.20;;
77736;SDS011;66903;59.926;30.404;2024-03-02T18:08:10;3.78;;;1.50;;
77736;SDS011;66903;59.926;30.404;2024-03-02T18:13:21;5.65;;;2.10;;
77736;SDS011;66903;59.926;30.404;2024-03-02T18:18:32;5.88;;;2.38;;
77736;SDS011;66903;59.926;30.404;2024-03-02T18:23:43;7.10;;;3.25;;
77736;SDS011;66903;59.926;30.404;2024-03-02T18:28:54;7.20;;;3.00;;
77736;SDS011;66903;59.926;30.404;2024-03-02T18:34:05;5.47;;;2.83;;
77736;SDS011;66903;59.926;30.404;2024-03-02T18:39:16;4.97;;;2.08;;
77736;SDS011;66903;59.926;30.404;2024-03-02T18:44:27;4.55;;;1.63;;
77736;SDS011;66903;59.926;30.404;2024-03-02T18:49:42;4.68;;;2.08;;
77736;SDS011;66903;59.926;30.404;2024-03-02T18:54:56;5.78;;;2.33;;
77736;SDS011;66903;59.926;30.404;2024-03-02T19:00:07;16.52;;;5.75;;
77736;SDS011;66903;59.926;30.404;2024-03-02T19:05:20;5.43;;;2.63;;
77736;SDS011;66903;59.926;30.404;2024-03-02T19:10:31;4.75;;;2.38;;
77736;SDS011;66903;59.926;30.404;2024-03-02T19:15:42;5.55;;;2.63;;
77736;SDS011;66903;59.926;30.404;2024-03-02T19:20:53;5.93;;;2.83;;
77736;SDS011;66903;59.926;30.404;2024-03-02T19:26:04;5.18;;;2.55;;
77736;SDS011;66903;59.926;30.404;2024-03-02T19:31:16;6.63;;;3.15;;
77736;SDS011;66903;59.926;30.404;2024-03-02T19:36:27;6.25;;;2.80;;
77736;SDS011;66903;59.926;30.404;2024-03-02T19:41:38;7.53;;;2.95;;
77736;SDS011;66903;59.926;30.404;2024-03-02T19:46:49;8.50;;;3.75;;
77736;SDS011;66903;59.926;30.404;2024-03-02T19:52:00;15.40;;;6.00;;
77736;SDS011;66903;59.926;30.404;2024-03-02T19:57:11;8.88;;;3.05;;
77736;SDS011;66903;59.926;30.404;2024-03-02T20:02:22;4.70;;;2.20;;
77736;SDS011;66903;59.926;30.404;2024-03-02T20:07:37;6.82;;;2.95;;
77736;SDS011;66903;59.926;30.404;2024-03-02T20:12:52;4.43;;;2.00;;
77736;SDS011;66903;59.926;30.404;2024-03-02T20:18:03;22.50;;;7.15;;
77736;SDS011;66903;59.926;30.404;2024-03-02T20:23:14;10.82;;;4.18;;
77736;SDS011;66903;59.926;30.404;2024-03-02T20:28:25;7.72;;;3.40;;
77736;SDS011;66903;59.926;30.404;2024-03-02T20:33:36;16.25;;;7.53;;
77736;SDS011;66903;59.926;30.404;2024-03-02T20:38:47;10.93;;;4.72;;
77736;SDS011;66903;59.926;30.404;2024-03-02T20:43:58;7.93;;;3.47;;
77736;SDS011;66903;59.926;30.404;2024-03-02T20:49:10;10.48;;;4.38;;
77736;SDS011;66903;59.926;30.404;2024-03-02T20:54:21;5.47;;;2.40;;
77736;SDS011;66903;59.926;30.404;2024-03-02T20:59:32;6.55;;;2.28;;
77736;SDS011;66903;59.926;30.404;2024-03-02T21:04:44;7.63;;;2.75;;
77736;SDS011;66903;59.926;30.404;2024-03-02T21:09:56;7.15;;;2.70;;
77736;SDS011;66903;59.926;30.404;2024-03-02T21:15:07;7.05;;;2.42;;
77736;SDS011;66903;59.926;30.404;2024-03-02T21:20:19;5.22;;;2.20;;
77736;SDS011;66903;59.926;30.404;2024-03-02T21:25:30;6.85;;;2.00;;
77736;SDS011;66903;59.926;30.404;2024-03-02T21:30:44;7.63;;;2.90;;
77736;SDS011;66903;59.926;30.404;2024-03-02T21:35:55;5.53;;;1.95;;
77736;SDS011;66903;59.926;30.404;2024-03-02T21:41:06;4.57;;;1.88;;
77736;SDS011;66903;59.926;30.404;2024-03-02T21:46:17;4.93;;;2.05;;
77736;SDS011;66903;59.926;30.404;2024-03-02T21:51:28;6.63;;;2.30;;
77736;SDS011;66903;59.926;30.404;2024-03-02T21:56:39;6.35;;;2.50;;
77736;SDS011;66903;59.926;30.404;2024-03-02T22:01:50;6.78;;;2.55;;
77736;SDS011;66903;59.926;30.404;2024-03-02T22:07:01;7.40;;;4.32;;
77736;SDS011;66903;59.926;30.404;2024-03-02T22:12:13;5.70;;;2.53;;
77736;SDS011;66903;59.926;30.404;2024-03-02T22:17:24;5.35;;;2.53;;
77736;SDS011;66903;59.926;30.404;2024-03-02T22:22:38;7.47;;;2.05;;
77736;SDS011;66903;59.926;30.404;2024-03-02T22:27:51;6.78;;;2.45;;
77736;SDS011;66903;59.926;30.404;2024-03-02T22:33:05;5.47;;;2.40;;
77736;SDS011;66903;59.926;30.404;2024-03-02T22:38:16;4.43;;;1.80;;
77736;SDS011;66903;59.926;30.404;2024-03-02T22:43:28;4.93;;;2.58;;
77736;SDS011;66903;59.926;30.404;2024-03-02T22:48:39;4.00;;;1.50;;
77736;SDS011;66903;59.926;30.404;2024-03-02T22:53:51;5.13;;;1.77;;
77736;SDS011;66903;59.926;30.404;2024-03-02T22:59:02;11.55;;;4.13;;
77736;SDS011;66903;59.926;30.404;2024-03-02T23:04:14;8.07;;;3.00;;
77736;SDS011;66903;59.926;30.404;2024-03-02T23:09:25;8.73;;;3.45;;
77736;SDS011;66903;59.926;30.404;2024-03-02T23:14:36;6.45;;;2.60;;
77736;SDS011;66903;59.926;30.404;2024-03-02T23:19:48;5.22;;;2.05;;
77736;SDS011;66903;59.926;30.404;2024-03-02T23:24:59;4.50;;;1.90;;
77736;SDS011;66903;59.926;30.404;2024-03-02T23:30:10;6.13;;;2.05;;
77736;SDS011;66903;59.926;30.404;2024-03-02T23:35:21;6.13;;;2.38;;
77736;SDS011;66903;59.926;30.404;2024-03-02T23:40:32;6.03;;;2.58;;
77736;SDS011;66903;59.926;30.404;2024-03-02T23:45:43;5.57;;;2.40;;
77736;SDS011;66903;59.926;30.404;2024-03-02T23:50:54;5.20;;;2.00;;
77736;SDS011;66903;59.926;30.404;2024-03-02T23:56:10;5.50;;;2.45;;
